Bryan, Ohio
Current Conditions -  °F | °C
As of 11:53 AM on Sunday 23 Nov 2014 (Local Time) from KDFI Reporting Station
Few Clouds Few Clouds  
Wind Chill: 54°   Ceiling: Unl
Heat Index: 54°   Visibility: 10mi
Dew Point: 44°   Wind: 10mph
Humidity: 69%   Direction: 180°S
Pressure: 29.84"   Gusts: NA
Location:  41.47°N, 84.55°W
Report Text: KDFI 231653Z AUTO 18009KT 10SM FEW110 12/07 A2984 RMK AO2 SLP106 T01220067
Loading
Personal Weather Stations






























Interactive Weather Map New forecast layout! Learn more

10-Day Weather Forecast

Advertisements
Track Severe Weather on mobile